KTRI/TRI METAR and TAF weather

Enter ICAO airport designator
Station Type Date Time Source
KTRI METAR 2020/01/21 14:53 UTC NOAA

KTRI 211453Z VRB06KT 10SM SCT036 M05/M13 A3052 RMK AO2 SLP343 60000 T10501128 53016


Station Type Date Time Source
KTRI Decoded METAR 2020/01/21 14:53 UTC NOAA

TRI-CITY REGIONAL AIRPORT, TN, United States (KTRI) 36-28N 082-24W 474M
Jan 21, 2020 - 09:53 AM EST / 2020.01.21 1453 UTC
Wind: Variable at 7 MPH (6 KT):0
Visibility: 10 mile(s):0
Sky conditions: partly cloudy
Temperature: 23.0 F (-5.0 C)
Windchill: 14 F (-10 C):1
Dew Point: 9.0 F (-12.8 C)
Relative Humidity: 54%
Pressure (altimeter): 30.52 in. Hg (1033 hPa)
Pressure tendency: 0.05 inches (1.6 hPa) higher than three hours ago
ob: KTRI 211453Z VRB06KT 10SM SCT036 M05/M13 A3052 RMK AO2 SLP343 60000 T10501128 53016
cycle: 15

Station Type Date Time Source
KTRI TAF 2020/01/21 12:22 UTC NOAA

TAF KTRI 211120Z 2112/2212 02006KT P6SM BKN035
FM211700 36005KT P6SM SCT035
FM212100 35004KT P6SM SKC
FM220000 00000KT P6SM FEW250

Example: see airport list